sensor_id;sensor_type;location;lat;lon;timestamp;pressure;altitude;pressure_sealevel;temperature;humidity
61682;BME280;47577;43.610;25.010;2023-06-04T00:00:43;100730.16;;;17.77;59.62
61682;BME280;47577;43.610;25.010;2023-06-04T00:03:09;100722.28;;;17.74;60.03
61682;BME280;47577;43.610;25.010;2023-06-04T00:05:34;100724.88;;;17.76;64.76
61682;BME280;47577;43.610;25.010;2023-06-04T00:08:00;100728.84;;;17.84;65.53
61682;BME280;47577;43.610;25.010;2023-06-04T00:10:25;100739.34;;;17.73;64.25
61682;BME280;47577;43.610;25.010;2023-06-04T00:12:51;100735.47;;;17.79;64.10
61682;BME280;47577;43.610;25.010;2023-06-04T00:15:17;100736.50;;;17.76;62.09
61682;BME280;47577;43.610;25.010;2023-06-04T00:17:43;100720.44;;;17.75;64.54
61682;BME280;47577;43.610;25.010;2023-06-04T00:20:09;100722.81;;;17.65;64.46
61682;BME280;47577;43.610;25.010;2023-06-04T00:22:35;100732.69;;;17.80;63.05
61682;BME280;47577;43.610;25.010;2023-06-04T00:25:01;100729.69;;;17.85;66.28
61682;BME280;47577;43.610;25.010;2023-06-04T00:27:26;100723.91;;;17.77;67.57
61682;BME280;47577;43.610;25.010;2023-06-04T00:29:52;100725.06;;;17.57;65.63
61682;BME280;47577;43.610;25.010;2023-06-04T00:32:18;100730.28;;;17.60;62.87
61682;BME280;47577;43.610;25.010;2023-06-04T00:34:50;100729.50;;;17.58;61.13
61682;BME280;47577;43.610;25.010;2023-06-04T00:37:16;100736.09;;;17.52;64.16
61682;BME280;47577;43.610;25.010;2023-06-04T00:39:41;100720.13;;;17.49;65.38
61682;BME280;47577;43.610;25.010;2023-06-04T00:42:07;100730.63;;;17.53;64.43
61682;BME280;47577;43.610;25.010;2023-06-04T00:44:32;100731.94;;;17.46;63.67
61682;BME280;47577;43.610;25.010;2023-06-04T00:46:59;100740.25;;;17.58;66.93
61682;BME280;47577;43.610;25.010;2023-06-04T00:49:24;100732.19;;;17.58;65.12
61682;BME280;47577;43.610;25.010;2023-06-04T00:51:50;100739.28;;;17.59;64.22
61682;BME280;47577;43.610;25.010;2023-06-04T00:54:16;100729.84;;;17.51;63.61
61682;BME280;47577;43.610;25.010;2023-06-04T00:56:43;100734.09;;;17.55;66.41
61682;BME280;47577;43.610;25.010;2023-06-04T00:59:10;100734.31;;;17.67;64.78
61682;BME280;47577;43.610;25.010;2023-06-04T01:01:43;100741.81;;;17.62;64.44
61682;BME280;47577;43.610;25.010;2023-06-04T01:04:16;100745.25;;;17.64;66.21
61682;BME280;47577;43.610;25.010;2023-06-04T01:06:45;100743.47;;;17.64;66.66
61682;BME280;47577;43.610;25.010;2023-06-04T01:09:15;100742.66;;;17.62;65.42
61682;BME280;47577;43.610;25.010;2023-06-04T01:11:41;100734.88;;;17.58;65.01
61682;BME280;47577;43.610;25.010;2023-06-04T01:14:08;100735.16;;;17.53;62.88
61682;BME280;47577;43.610;25.010;2023-06-04T01:16:49;100731.13;;;17.60;65.97
61682;BME280;47577;43.610;25.010;2023-06-04T01:25:30;100745.00;;;17.52;65.31
61682;BME280;47577;43.610;25.010;2023-06-04T01:27:57;100732.13;;;17.43;63.96
61682;BME280;47577;43.610;25.010;2023-06-04T01:30:29;100753.78;;;17.56;61.12
61682;BME280;47577;43.610;25.010;2023-06-04T01:32:55;100745.63;;;17.58;62.37
61682;BME280;47577;43.610;25.010;2023-06-04T01:35:22;100755.50;;;17.57;59.13
61682;BME280;47577;43.610;25.010;2023-06-04T01:37:48;100749.94;;;17.60;62.64
61682;BME280;47577;43.610;25.010;2023-06-04T01:40:14;100746.84;;;17.52;64.11
61682;BME280;47577;43.610;25.010;2023-06-04T01:42:41;100742.06;;;17.41;64.38
61682;BME280;47577;43.610;25.010;2023-06-04T01:45:08;100758.28;;;17.55;66.07
61682;BME280;47577;43.610;25.010;2023-06-04T01:47:33;100742.69;;;17.46;61.37
61682;BME280;47577;43.610;25.010;2023-06-04T01:50:01;100742.88;;;17.43;64.55
61682;BME280;47577;43.610;25.010;2023-06-04T01:52:29;100753.19;;;17.51;63.62
61682;BME280;47577;43.610;25.010;2023-06-04T01:54:55;100755.59;;;17.55;64.27
61682;BME280;47577;43.610;25.010;2023-06-04T01:57:21;100754.41;;;17.45;62.02
61682;BME280;47577;43.610;25.010;2023-06-04T01:59:48;100759.00;;;17.43;64.23
61682;BME280;47577;43.610;25.010;2023-06-04T02:02:14;100760.53;;;17.47;62.44
61682;BME280;47577;43.610;25.010;2023-06-04T02:04:40;100764.19;;;17.46;63.38
61682;BME280;47577;43.610;25.010;2023-06-04T02:07:09;100763.13;;;17.33;62.90
61682;BME280;47577;43.610;25.010;2023-06-04T02:09:36;100769.06;;;17.40;64.12
61682;BME280;47577;43.610;25.010;2023-06-04T02:12:02;100758.47;;;17.36;63.50
61682;BME280;47577;43.610;25.010;2023-06-04T02:14:28;100770.34;;;17.32;62.30
61682;BME280;47577;43.610;25.010;2023-06-04T02:16:54;100773.28;;;17.44;65.84
61682;BME280;47577;43.610;25.010;2023-06-04T02:19:26;100784.66;;;17.49;65.63
61682;BME280;47577;43.610;25.010;2023-06-04T02:21:53;100776.06;;;17.42;65.34
61682;BME280;47577;43.610;25.010;2023-06-04T02:24:19;100781.03;;;17.50;64.87
61682;BME280;47577;43.610;25.010;2023-06-04T02:26:45;100773.38;;;17.26;66.99
61682;BME280;47577;43.610;25.010;2023-06-04T02:29:11;100780.94;;;17.35;67.50
61682;BME280;47577;43.610;25.010;2023-06-04T02:31:37;100776.75;;;17.30;66.58
61682;BME280;47577;43.610;25.010;2023-06-04T02:34:03;100788.47;;;17.29;63.14
61682;BME280;47577;43.610;25.010;2023-06-04T02:36:29;100782.41;;;17.25;62.55
61682;BME280;47577;43.610;25.010;2023-06-04T02:38:55;100784.72;;;17.15;66.54
61682;BME280;47577;43.610;25.010;2023-06-04T02:41:21;100786.59;;;16.97;64.69
61682;BME280;47577;43.610;25.010;2023-06-04T02:43:47;100793.38;;;17.05;64.70
61682;BME280;47577;43.610;25.010;2023-06-04T02:46:13;100792.50;;;17.04;61.97
61682;BME280;47577;43.610;25.010;2023-06-04T02:48:39;100805.50;;;17.12;62.79
61682;BME280;47577;43.610;25.010;2023-06-04T02:51:04;100802.38;;;17.04;61.60
61682;BME280;47577;43.610;25.010;2023-06-04T02:53:30;100812.19;;;17.05;61.31
61682;BME280;47577;43.610;25.010;2023-06-04T02:55:56;100797.06;;;17.02;61.78
61682;BME280;47577;43.610;25.010;2023-06-04T02:58:22;100802.97;;;16.93;60.97
61682;BME280;47577;43.610;25.010;2023-06-04T03:00:53;100801.59;;;17.02;62.27
61682;BME280;47577;43.610;25.010;2023-06-04T03:03:18;100797.53;;;16.94;61.42
61682;BME280;47577;43.610;25.010;2023-06-04T03:05:44;100801.69;;;16.82;61.37
61682;BME280;47577;43.610;25.010;2023-06-04T03:08:10;100806.19;;;16.82;63.53
61682;BME280;47577;43.610;25.010;2023-06-04T03:10:36;100813.63;;;16.77;60.31
61682;BME280;47577;43.610;25.010;2023-06-04T03:13:01;100816.41;;;16.75;62.42
61682;BME280;47577;43.610;25.010;2023-06-04T03:15:27;100807.00;;;16.67;60.21
61682;BME280;47577;43.610;25.010;2023-06-04T03:17:53;100815.34;;;16.78;60.43
61682;BME280;47577;43.610;25.010;2023-06-04T03:20:18;100809.53;;;16.87;59.05
61682;BME280;47577;43.610;25.010;2023-06-04T03:22:44;100818.59;;;16.85;61.19
61682;BME280;47577;43.610;25.010;2023-06-04T03:25:09;100823.97;;;16.85;61.93
61682;BME280;47577;43.610;25.010;2023-06-04T03:27:35;100835.28;;;16.91;61.57
61682;BME280;47577;43.610;25.010;2023-06-04T03:30:01;100823.03;;;16.68;59.60
61682;BME280;47577;43.610;25.010;2023-06-04T03:32:28;100832.03;;;16.85;60.72
61682;BME280;47577;43.610;25.010;2023-06-04T03:34:54;100840.56;;;16.93;59.79
61682;BME280;47577;43.610;25.010;2023-06-04T03:37:19;100840.50;;;16.94;60.50
61682;BME280;47577;43.610;25.010;2023-06-04T03:39:45;100835.97;;;16.95;61.01
61682;BME280;47577;43.610;25.010;2023-06-04T03:42:10;100845.59;;;16.99;60.53
61682;BME280;47577;43.610;25.010;2023-06-04T03:44:36;100848.94;;;17.04;62.28
61682;BME280;47577;43.610;25.010;2023-06-04T03:47:02;100838.34;;;17.01;61.51
61682;BME280;47577;43.610;25.010;2023-06-04T03:49:27;100842.59;;;17.05;63.55
61682;BME280;47577;43.610;25.010;2023-06-04T03:51:53;100832.00;;;17.02;62.51
61682;BME280;47577;43.610;25.010;2023-06-04T03:54:19;100843.56;;;17.04;63.23
61682;BME280;47577;43.610;25.010;2023-06-04T03:56:45;100849.69;;;17.06;60.70
61682;BME280;47577;43.610;25.010;2023-06-04T03:59:11;100848.47;;;16.96;61.25
61682;BME280;47577;43.610;25.010;2023-06-04T04:01:37;100850.72;;;17.04;61.69
61682;BME280;47577;43.610;25.010;2023-06-04T04:04:04;100840.56;;;16.93;60.28
61682;BME280;47577;43.610;25.010;2023-06-04T04:06:30;100857.31;;;16.98;62.45
61682;BME280;47577;43.610;25.010;2023-06-04T04:08:56;100850.44;;;16.92;60.40
61682;BME280;47577;43.610;25.010;2023-06-04T04:11:21;100858.41;;;16.94;60.54
61682;BME280;47577;43.610;25.010;2023-06-04T04:13:48;100859.09;;;16.97;61.84
61682;BME280;47577;43.610;25.010;2023-06-04T04:16:13;100869.59;;;17.02;64.36
61682;BME280;47577;43.610;25.010;2023-06-04T04:18:42;100867.72;;;17.04;64.96
61682;BME280;47577;43.610;25.010;2023-06-04T04:21:09;100869.53;;;17.04;63.04
61682;BME280;47577;43.610;25.010;2023-06-04T04:23:38;100869.06;;;16.95;62.36
61682;BME280;47577;43.610;25.010;2023-06-04T04:26:07;100875.88;;;17.03;62.71
61682;BME280;47577;43.610;25.010;2023-06-04T04:28:33;100881.16;;;17.04;63.15
61682;BME280;47577;43.610;25.010;2023-06-04T04:30:59;100884.94;;;17.00;63.39
61682;BME280;47577;43.610;25.010;2023-06-04T04:33:31;100884.78;;;17.03;63.46
61682;BME280;47577;43.610;25.010;2023-06-04T04:36:02;100889.47;;;16.99;63.65
61682;BME280;47577;43.610;25.010;2023-06-04T04:38:27;100885.19;;;16.95;64.35
61682;BME280;47577;43.610;25.010;2023-06-04T04:40:54;100875.81;;;16.87;62.12
61682;BME280;47577;43.610;25.010;2023-06-04T04:43:34;100892.38;;;16.95;62.89
61682;BME280;47577;43.610;25.010;2023-06-04T04:46:00;100886.31;;;16.91;62.25
61682;BME280;47577;43.610;25.010;2023-06-04T04:48:25;100887.31;;;16.89;62.86
61682;BME280;47577;43.610;25.010;2023-06-04T04:50:52;100891.59;;;16.93;63.53
61682;BME280;47577;43.610;25.010;2023-06-04T04:53:18;100883.88;;;16.87;64.25
61682;BME280;47577;43.610;25.010;2023-06-04T04:55:44;100879.47;;;16.84;65.48
61682;BME280;47577;43.610;25.010;2023-06-04T04:58:09;100886.22;;;16.93;65.31
61682;BME280;47577;43.610;25.010;2023-06-04T05:00:35;100887.88;;;16.95;67.68
61682;BME280;47577;43.610;25.010;2023-06-04T05:03:01;100887.72;;;16.98;67.93
61682;BME280;47577;43.610;25.010;2023-06-04T05:05:26;100885.19;;;16.95;68.52
61682;BME280;47577;43.610;25.010;2023-06-04T05:07:52;100887.16;;;16.92;68.08
61682;BME280;47577;43.610;25.010;2023-06-04T05:10:18;100901.19;;;16.79;66.74
61682;BME280;47577;43.610;25.010;2023-06-04T05:12:57;100902.78;;;16.84;65.27
61682;BME280;47577;43.610;25.010;2023-06-04T05:15:23;100895.03;;;16.77;67.97
61682;BME280;47577;43.610;25.010;2023-06-04T05:17:50;100896.47;;;16.85;67.60
61682;BME280;47577;43.610;25.010;2023-06-04T05:20:18;100911.34;;;16.92;67.08
61682;BME280;47577;43.610;25.010;2023-06-04T05:22:44;100915.22;;;16.86;68.36
61682;BME280;47577;43.610;25.010;2023-06-04T05:25:11;100905.03;;;16.93;66.69
61682;BME280;47577;43.610;25.010;2023-06-04T05:27:37;100910.47;;;16.91;65.97
61682;BME280;47577;43.610;25.010;2023-06-04T05:30:03;100911.41;;;16.90;65.34
61682;BME280;47577;43.610;25.010;2023-06-04T05:32:29;100905.03;;;16.93;65.36
61682;BME280;47577;43.610;25.010;2023-06-04T05:34:57;100917.00;;;17.03;67.98
61682;BME280;47577;43.610;25.010;2023-06-04T05:37:26;100921.06;;;16.94;65.94
61682;BME280;47577;43.610;25.010;2023-06-04T05:39:56;100924.53;;;16.96;68.01
61682;BME280;47577;43.610;25.010;2023-06-04T05:42:22;100924.16;;;16.87;68.13
61682;BME280;47577;43.610;25.010;2023-06-04T05:44:49;100923.03;;;16.91;68.47
61682;BME280;47577;43.610;25.010;2023-06-04T05:47:16;100920.25;;;16.92;67.92
61682;BME280;47577;43.610;25.010;2023-06-04T05:49:45;100924.25;;;16.84;69.41
61682;BME280;47577;43.610;25.010;2023-06-04T05:52:10;100923.28;;;16.86;69.98
61682;BME280;47577;43.610;25.010;2023-06-04T05:54:36;100928.13;;;16.78;70.88
61682;BME280;47577;43.610;25.010;2023-06-04T05:57:05;100930.66;;;16.81;71.46
61682;BME280;47577;43.610;25.010;2023-06-04T05:59:31;100929.78;;;16.80;67.47
61682;BME280;47577;43.610;25.010;2023-06-04T06:01:57;100938.78;;;16.79;68.57
61682;BME280;47577;43.610;25.010;2023-06-04T06:04:23;100935.88;;;16.84;67.67
61682;BME280;47577;43.610;25.010;2023-06-04T06:06:49;100938.63;;;16.82;67.89
61682;BME280;47577;43.610;25.010;2023-06-04T06:09:15;100941.75;;;16.92;66.92
61682;BME280;47577;43.610;25.010;2023-06-04T06:11:41;100944.44;;;16.92;66.16
61682;BME280;47577;43.610;25.010;2023-06-04T06:14:07;100939.28;;;16.88;65.44
61682;BME280;47577;43.610;25.010;2023-06-04T06:16:33;100948.78;;;16.95;66.89
61682;BME280;47577;43.610;25.010;2023-06-04T06:18:59;100948.88;;;16.93;68.74
61682;BME280;47577;43.610;25.010;2023-06-04T06:21:26;100955.72;;;16.99;67.91
61682;BME280;47577;43.610;25.010;2023-06-04T06:23:51;100943.81;;;17.05;65.40
61682;BME280;47577;43.610;25.010;2023-06-04T06:26:17;100950.34;;;16.99;66.98
61682;BME280;47577;43.610;25.010;2023-06-04T06:28:43;100946.34;;;17.08;67.51
61682;BME280;47577;43.610;25.010;2023-06-04T06:31:09;100940.97;;;17.08;66.17
61682;BME280;47577;43.610;25.010;2023-06-04T06:33:35;100949.88;;;17.08;66.19
61682;BME280;47577;43.610;25.010;2023-06-04T06:36:02;100952.41;;;17.11;66.47
61682;BME280;47577;43.610;25.010;2023-06-04T06:38:27;100948.25;;;17.06;67.54
61682;BME280;47577;43.610;25.010;2023-06-04T06:40:53;100954.47;;;17.06;67.83
61682;BME280;47577;43.610;25.010;2023-06-04T06:43:19;100941.19;;;17.03;69.95
61682;BME280;47577;43.610;25.010;2023-06-04T06:45:45;100958.91;;;16.90;67.42
61682;BME280;47577;43.610;25.010;2023-06-04T06:48:10;100950.19;;;16.85;69.13
61682;BME280;47577;43.610;25.010;2023-06-04T06:50:36;100963.31;;;16.91;66.89
61682;BME280;47577;43.610;25.010;2023-06-04T06:53:02;100967.59;;;16.95;67.97
61682;BME280;47577;43.610;25.010;2023-06-04T06:55:28;100964.91;;;16.95;66.80
61682;BME280;47577;43.610;25.010;2023-06-04T06:57:53;100970.59;;;17.06;67.60
61682;BME280;47577;43.610;25.010;2023-06-04T07:00:19;100972.16;;;17.10;66.02
61682;BME280;47577;43.610;25.010;2023-06-04T07:02:45;100966.22;;;17.04;67.27
61682;BME280;47577;43.610;25.010;2023-06-04T07:05:11;100964.97;;;17.11;68.02
61682;BME280;47577;43.610;25.010;2023-06-04T07:07:37;100960.00;;;17.21;66.79
61682;BME280;47577;43.610;25.010;2023-06-04T07:10:03;100976.25;;;17.35;66.27
61682;BME280;47577;43.610;25.010;2023-06-04T07:12:29;100967.50;;;17.47;68.10
61682;BME280;47577;43.610;25.010;2023-06-04T07:14:55;100981.56;;;17.52;66.03
61682;BME280;47577;43.610;25.010;2023-06-04T07:17:21;100980.47;;;17.57;67.91
61682;BME280;47577;43.610;25.010;2023-06-04T07:19:47;100977.63;;;17.60;67.19
61682;BME280;47577;43.610;25.010;2023-06-04T07:22:13;100967.72;;;17.60;66.86
61682;BME280;47577;43.610;25.010;2023-06-04T07:24:41;100984.56;;;17.64;67.16
61682;BME280;47577;43.610;25.010;2023-06-04T07:27:14;100987.59;;;17.73;65.87
61682;BME280;47577;43.610;25.010;2023-06-04T07:29:40;100985.97;;;17.71;64.20
61682;BME280;47577;43.610;25.010;2023-06-04T07:32:06;100983.91;;;17.76;65.15
61682;BME280;47577;43.610;25.010;2023-06-04T07:34:32;100987.13;;;17.83;68.27
61682;BME280;47577;43.610;25.010;2023-06-04T07:36:57;100984.13;;;17.89;66.61
61682;BME280;47577;43.610;25.010;2023-06-04T07:39:23;100979.78;;;18.02;65.74
61682;BME280;47577;43.610;25.010;2023-06-04T07:41:49;100973.06;;;18.11;66.12
61682;BME280;47577;43.610;25.010;2023-06-04T07:44:14;100989.47;;;18.22;65.93
61682;BME280;47577;43.610;25.010;2023-06-04T07:46:40;100976.59;;;18.27;64.59
61682;BME280;47577;43.610;25.010;2023-06-04T07:49:06;100982.66;;;18.31;65.64
61682;BME280;47577;43.610;25.010;2023-06-04T07:51:32;100974.06;;;18.40;66.75
61682;BME280;47577;43.610;25.010;2023-06-04T07:53:57;100979.81;;;18.50;64.64
61682;BME280;47577;43.610;25.010;2023-06-04T07:56:23;100976.03;;;18.53;66.45
61682;BME280;47577;43.610;25.010;2023-06-04T07:58:48;100980.72;;;18.65;66.95
61682;BME280;47577;43.610;25.010;2023-06-04T08:01:14;100985.06;;;18.68;64.54
61682;BME280;47577;43.610;25.010;2023-06-04T08:03:40;100982.00;;;18.74;63.81
61682;BME280;47577;43.610;25.010;2023-06-04T08:06:07;100978.44;;;18.73;64.39
61682;BME280;47577;43.610;25.010;2023-06-04T08:08:32;100993.19;;;18.82;64.95
61682;BME280;47577;43.610;25.010;2023-06-04T08:10:59;100979.13;;;18.77;64.66
61682;BME280;47577;43.610;25.010;2023-06-04T08:13:25;100983.84;;;18.89;66.36
61682;BME280;47577;43.610;25.010;2023-06-04T08:15:51;100992.41;;;18.96;62.54
61682;BME280;47577;43.610;25.010;2023-06-04T08:18:17;100995.50;;;19.04;64.38
61682;BME280;47577;43.610;25.010;2023-06-04T08:20:42;100994.25;;;18.95;63.63
61682;BME280;47577;43.610;25.010;2023-06-04T08:23:08;100998.38;;;19.01;62.71
61682;BME280;47577;43.610;25.010;2023-06-04T08:25:33;100998.69;;;19.11;64.46
61682;BME280;47577;43.610;25.010;2023-06-04T08:27:59;101002.19;;;19.27;64.91
61682;BME280;47577;43.610;25.010;2023-06-04T08:30:25;101008.66;;;19.25;63.25
61682;BME280;47577;43.610;25.010;2023-06-04T08:32:53;101004.31;;;19.22;64.65
61682;BME280;47577;43.610;25.010;2023-06-04T08:35:18;101010.91;;;19.32;63.05
61682;BME280;47577;43.610;25.010;2023-06-04T08:37:44;101010.03;;;19.46;63.05
61682;BME280;47577;43.610;25.010;2023-06-04T08:40:10;101011.78;;;19.47;64.04
61682;BME280;47577;43.610;25.010;2023-06-04T08:42:43;101014.47;;;19.47;64.13
61682;BME280;47577;43.610;25.010;2023-06-04T08:45:13;101013.63;;;19.61;64.57
61682;BME280;47577;43.610;25.010;2023-06-04T08:47:48;101014.00;;;19.69;64.88
61682;BME280;47577;43.610;25.010;2023-06-04T08:50:17;100993.78;;;19.62;62.61
61682;BME280;47577;43.610;25.010;2023-06-04T08:52:43;101022.31;;;19.81;63.21
61682;BME280;47577;43.610;25.010;2023-06-04T08:55:11;101019.72;;;19.79;63.15
61682;BME280;47577;43.610;25.010;2023-06-04T08:57:39;101023.88;;;19.85;61.95
61682;BME280;47577;43.610;25.010;2023-06-04T09:00:04;101030.41;;;19.81;62.85
61682;BME280;47577;43.610;25.010;2023-06-04T09:02:36;101019.63;;;19.81;63.63
61682;BME280;47577;43.610;25.010;2023-06-04T09:05:04;101022.59;;;20.05;64.07
61682;BME280;47577;43.610;25.010;2023-06-04T09:07:35;101015.78;;;20.14;65.76
61682;BME280;47577;43.610;25.010;2023-06-04T09:10:01;101015.47;;;20.18;64.36
61682;BME280;47577;43.610;25.010;2023-06-04T09:12:27;101017.84;;;20.23;63.52
61682;BME280;47577;43.610;25.010;2023-06-04T09:14:54;101022.06;;;20.41;61.33
61682;BME280;47577;43.610;25.010;2023-06-04T09:17:28;101024.94;;;20.53;63.45
61682;BME280;47577;43.610;25.010;2023-06-04T09:19:54;101016.81;;;20.67;63.48
61682;BME280;47577;43.610;25.010;2023-06-04T09:22:19;101009.47;;;20.69;60.26
61682;BME280;47577;43.610;25.010;2023-06-04T09:24:46;101019.53;;;20.67;60.31
61682;BME280;47577;43.610;25.010;2023-06-04T09:27:17;101023.69;;;20.86;60.57
61682;BME280;47577;43.610;25.010;2023-06-04T09:29:53;101018.41;;;20.97;61.31
61682;BME280;47577;43.610;25.010;2023-06-04T09:32:26;101019.41;;;21.09;59.54
61682;BME280;47577;43.610;25.010;2023-06-04T09:35:15;101022.03;;;21.23;59.43
61682;BME280;47577;43.610;25.010;2023-06-04T09:37:43;101016.53;;;21.25;59.49
61682;BME280;47577;43.610;25.010;2023-06-04T09:40:09;101022.16;;;21.34;60.78
61682;BME280;47577;43.610;25.010;2023-06-04T09:42:44;101017.22;;;21.54;59.62
61682;BME280;47577;43.610;25.010;2023-06-04T09:45:10;101017.56;;;21.75;59.50
61682;BME280;47577;43.610;25.010;2023-06-04T09:47:41;101014.28;;;21.96;58.39
61682;BME280;47577;43.610;25.010;2023-06-04T09:50:08;101011.72;;;21.81;58.54
61682;BME280;47577;43.610;25.010;2023-06-04T09:52:34;101012.56;;;21.95;56.95
61682;BME280;47577;43.610;25.010;2023-06-04T09:55:00;101004.81;;;22.14;57.70
61682;BME280;47577;43.610;25.010;2023-06-04T09:57:28;101003.81;;;22.41;58.92
61682;BME280;47577;43.610;25.010;2023-06-04T10:02:22;100999.56;;;22.74;56.75
61682;BME280;47577;43.610;25.010;2023-06-04T10:04:55;101003.31;;;22.84;56.53
61682;BME280;47577;43.610;25.010;2023-06-04T10:07:25;101003.69;;;22.91;56.49
61682;BME280;47577;43.610;25.010;2023-06-04T10:09:54;100999.41;;;22.99;55.11
61682;BME280;47577;43.610;25.010;2023-06-04T10:12:26;101006.75;;;22.86;54.63
61682;BME280;47577;43.610;25.010;2023-06-04T10:15:10;100999.59;;;22.85;53.98
61682;BME280;47577;43.610;25.010;2023-06-04T10:17:37;101001.84;;;22.91;56.52
61682;BME280;47577;43.610;25.010;2023-06-04T10:20:03;100995.31;;;23.18;56.25
61682;BME280;47577;43.610;25.010;2023-06-04T10:22:34;100996.97;;;23.43;53.39
61682;BME280;47577;43.610;25.010;2023-06-04T10:25:00;101000.19;;;23.71;55.42
61682;BME280;47577;43.610;25.010;2023-06-04T10:27:26;101007.03;;;23.88;54.98
61682;BME280;47577;43.610;25.010;2023-06-04T10:29:52;100992.84;;;23.96;56.12
61682;BME280;47577;43.610;25.010;2023-06-04T10:32:18;100998.66;;;24.02;52.49
61682;BME280;47577;43.610;25.010;2023-06-04T10:34:46;101002.44;;;24.11;54.71
61682;BME280;47577;43.610;25.010;2023-06-04T10:37:23;100997.16;;;24.09;51.98
61682;BME280;47577;43.610;25.010;2023-06-04T10:39:53;100991.44;;;24.24;54.25
61682;BME280;47577;43.610;25.010;2023-06-04T10:42:19;100989.44;;;24.37;52.04
61682;BME280;47577;43.610;25.010;2023-06-04T10:44:51;100994.13;;;24.58;53.76
61682;BME280;47577;43.610;25.010;2023-06-04T10:47:20;100991.31;;;24.80;55.62
61682;BME280;47577;43.610;25.010;2023-06-04T10:49:48;100983.50;;;24.87;53.04
61682;BME280;47577;43.610;25.010;2023-06-04T10:52:14;100983.16;;;24.80;53.11
61682;BME280;47577;43.610;25.010;2023-06-04T10:54:42;100981.00;;;24.52;51.40
61682;BME280;47577;43.610;25.010;2023-06-04T10:57:16;100981.34;;;24.70;51.75
61682;BME280;47577;43.610;25.010;2023-06-04T10:59:59;100973.53;;;24.76;52.61
61682;BME280;47577;43.610;25.010;2023-06-04T11:02:26;100973.31;;;24.68;51.17
61682;BME280;47577;43.610;25.010;2023-06-04T11:05:19;100977.91;;;24.68;52.52
61682;BME280;47577;43.610;25.010;2023-06-04T11:07:49;100977.22;;;24.43;52.41
61682;BME280;47577;43.610;25.010;2023-06-04T11:10:16;100975.31;;;24.55;54.75
61682;BME280;47577;43.610;25.010;2023-06-04T11:12:51;100974.84;;;24.61;50.28
61682;BME280;47577;43.610;25.010;2023-06-04T11:15:17;100961.63;;;24.45;53.86
61682;BME280;47577;43.610;25.010;2023-06-04T11:17:53;100967.97;;;24.78;54.04
61682;BME280;47577;43.610;25.010;2023-06-04T11:20:21;100974.53;;;24.75;52.01
61682;BME280;47577;43.610;25.010;2023-06-04T11:22:57;100968.22;;;24.75;50.80
61682;BME280;47577;43.610;25.010;2023-06-04T11:25:25;100975.25;;;24.77;53.34
61682;BME280;47577;43.610;25.010;2023-06-04T11:27:53;100965.53;;;24.63;50.99
61682;BME280;47577;43.610;25.010;2023-06-04T11:30:19;100962.81;;;24.96;53.22
61682;BME280;47577;43.610;25.010;2023-06-04T11:32:45;100962.66;;;25.18;52.42
61682;BME280;47577;43.610;25.010;2023-06-04T11:35:11;100966.59;;;25.26;53.23
61682;BME280;47577;43.610;25.010;2023-06-04T11:37:37;100958.94;;;25.31;48.82
61682;BME280;47577;43.610;25.010;2023-06-04T11:40:24;100966.53;;;25.58;53.54
61682;BME280;47577;43.610;25.010;2023-06-04T11:42:52;100959.03;;;25.81;49.84
61682;BME280;47577;43.610;25.010;2023-06-04T11:45:19;100963.28;;;25.22;46.53
61682;BME280;47577;43.610;25.010;2023-06-04T11:47:55;100952.41;;;25.22;49.23
61682;BME280;47577;43.610;25.010;2023-06-04T11:50:25;100961.88;;;25.49;48.53
61682;BME280;47577;43.610;25.010;2023-06-04T11:52:53;100962.13;;;25.67;50.22
61682;BME280;47577;43.610;25.010;2023-06-04T11:55:19;100960.59;;;25.43;50.54
61682;BME280;47577;43.610;25.010;2023-06-04T11:57:50;100956.94;;;24.47;50.73
61682;BME280;47577;43.610;25.010;2023-06-04T12:00:17;100959.13;;;24.64;50.07
61682;BME280;47577;43.610;25.010;2023-06-04T12:02:55;100951.84;;;24.54;51.03
61682;BME280;47577;43.610;25.010;2023-06-04T12:05:31;100947.19;;;24.44;53.75
61682;BME280;47577;43.610;25.010;2023-06-04T12:08:08;100957.28;;;24.54;53.82
61682;BME280;47577;43.610;25.010;2023-06-04T12:10:41;100961.59;;;24.68;52.58
61682;BME280;47577;43.610;25.010;2023-06-04T12:13:08;100950.25;;;24.51;54.29
61682;BME280;47577;43.610;25.010;2023-06-04T12:15:34;100958.06;;;24.56;52.91
61682;BME280;47577;43.610;25.010;2023-06-04T12:18:00;100955.56;;;24.64;50.18
61682;BME280;47577;43.610;25.010;2023-06-04T12:20:36;100957.22;;;24.76;53.25
61682;BME280;47577;43.610;25.010;2023-06-04T12:23:05;100963.22;;;24.91;53.14
61682;BME280;47577;43.610;25.010;2023-06-04T12:25:32;100965.94;;;24.91;49.74
61682;BME280;47577;43.610;25.010;2023-06-04T12:27:58;100967.84;;;25.00;53.24
61682;BME280;47577;43.610;25.010;2023-06-04T12:30:38;100966.34;;;25.08;47.42
61682;BME280;47577;43.610;25.010;2023-06-04T12:33:04;100963.22;;;25.12;51.01
61682;BME280;47577;43.610;25.010;2023-06-04T12:35:29;100967.19;;;25.08;50.16
61682;BME280;47577;43.610;25.010;2023-06-04T12:37:56;100963.69;;;25.17;49.73
61682;BME280;47577;43.610;25.010;2023-06-04T12:40:22;100960.91;;;25.08;49.22
61682;BME280;47577;43.610;25.010;2023-06-04T12:42:50;100971.84;;;25.17;50.32
61682;BME280;47577;43.610;25.010;2023-06-04T12:45:16;100960.28;;;25.25;50.57
61682;BME280;47577;43.610;25.010;2023-06-04T12:47:42;100960.06;;;24.96;49.94
61682;BME280;47577;43.610;25.010;2023-06-04T12:50:08;100969.06;;;25.08;49.72